Accueil
METAR-TAF:

METAR-TAF

Aéroports :

Paganella, Italie

latitude: 46-09N, longitude: 011-02E, altitude: 2125 m

Observation

Le bulletin a été fait il y a 35 minutes, à 00:55 UTC
Vent 4 kt de sud/sud-est
Température 3°C
Humidité 100%
Pression 1021 hPa
Visibilité: 0200 m
brouillard

METAR: LIVP 210055Z 16004KT 0200 FG VV/// 03/03 Q1021 RMK MON INVIS VAL INVIS VIS MIN 0200

Heure: 03:30 (01:30 UTC)


TAF: absent

Observations et prévisions météorologiques de plus de 4000 aéroports (messages METAR et TAF).

Les stations disponibles sont représentées par des disques jaunes et rouges sur la carte.

Passer la souris dessus pour voir le nom de la station.

Cliquer dessus pour voir les observations et prévisions météorologiques.

Pour changer de carte: cliquez sur les boutons verts avec une croix noire pour zoomer, sur le bouton vert avec un tiret pour effectuer un zoom arrière, ou sur les flèches vertes pour les cartes adjacentes.


METAR-TAF: